Catàleg de serveis del Meteocat
Campanya meteocatpedra

Dades de l'estació automàtica Tornabous

?
?
Resum diari 21:30 TU
Dades diàries de l'estació meteorològica
Temperatura mitjana 6.8 °C
Temperatura màxima 12.1 °C 14:01 TU
Temperatura mínima 1.6 °C 2:11 TU
Humitat relativa mitjana 89%
Precipitació acumulada 0.2 mm
Ratxa màxima del vent (2 m) 20.5 km/h - 229º 19:18 TU

El tram horari està expressat en Temps Universal (TU). Cal sumar una hora en horari d'hivern i dues en horari d'estiu per passar a l'hora oficial.

Tornabous

Metadades estació meteorol´gica
Municipi Tornabous
Comarca Urgell
Altitud 291 m
Data alta 06.08.2013
Estat actual Operativa
Dades de període
Període
TU
TM
°C
TX
°C
TN
°C
HRM
%
PPT
mm
VVM (2 m)
km/h
DVM (2 m)
graus
VVX (2 m)
km/h
00:00 - 00:30 3.1 3.6 2.6 100 0.0 0.0 117 2.5
00:30 - 01:00 2.9 3.3 2.3 100 0.0 0.4 136 2.5
01:00 - 01:30 2.3 3.2 1.7 100 0.0 0.0 161 2.9
01:30 - 02:00 2.0 2.1 1.7 100 0.0 0.0 0 0.0
02:00 - 02:30 2.0 2.4 1.6 100 0.0 0.0 0 0.0
02:30 - 03:00 2.2 2.9 1.9 100 0.0 0.0 113 2.2
03:00 - 03:30 3.0 3.6 2.6 100 0.0 0.4 97 3.2
03:30 - 04:00 3.4 3.7 3.2 100 0.0 0.0 89 1.8
04:00 - 04:30 3.9 4.2 3.7 100 0.0 0.0 0 0.0
04:30 - 05:00 4.3 4.7 3.9 100 0.0 0.7 34 4.0
05:00 - 05:30 4.6 4.7 4.5 100 0.0 0.0 0 0.0
05:30 - 06:00 4.9 5.2 4.5 100 0.0 1.8 69 6.1
06:00 - 06:30 5.2 5.2 5.2 100 0.0 2.5 43 7.6
06:30 - 07:00 5.3 5.5 5.2 99 0.0 2.5 49 7.6
07:00 - 07:30 5.7 5.9 5.5 96 0.0 2.9 59 7.6
07:30 - 08:00 6.0 6.1 5.9 98 0.1 2.2 82 6.1
08:00 - 08:30 6.4 7.1 6.1 100 0.1 0.4 346 3.6
08:30 - 09:00 7.2 7.3 7.1 95 0.0 1.8 285 5.4
09:00 - 09:30 7.2 7.3 7.1 95 0.0 2.5 284 6.5
09:30 - 10:00 7.1 7.2 7.0 95 0.0 1.4 215 3.2
10:00 - 10:30 7.4 7.6 7.2 94 0.0 1.4 183 4.0
10:30 - 11:00 8.1 8.8 7.6 90 0.0 3.2 217 7.6
11:00 - 11:30 8.8 9.4 8.6 85 0.0 4.7 232 10.4
11:30 - 12:00 9.8 10.4 9.5 79 0.0 5.4 227 12.2
12:00 - 12:30 9.7 10.4 9.3 79 0.0 6.8 230 13.3
12:30 - 13:00 10.2 11.1 9.7 75 0.0 4.3 256 12.6
13:00 - 13:30 11.3 11.8 10.8 70 0.0 7.9 207 15.5
13:30 - 14:00 11.8 12.0 11.7 69 0.0 8.3 230 14.8
14:00 - 14:30 11.9 12.1 11.6 71 0.0 10.4 219 19.1
14:30 - 15:00 11.7 11.8 11.5 72 0.0 8.6 222 17.3
15:00 - 15:30 11.8 12.0 11.6 74 0.0 6.8 218 15.1
15:30 - 16:00 11.5 11.7 11.3 76 0.0 5.4 206 11.2
16:00 - 16:30 10.6 11.2 9.6 82 0.0 2.9 216 6.5
16:30 - 17:00 7.7 9.3 6.4 95 0.0 0.7 106 2.9
17:00 - 17:30 6.1 6.3 5.8 100 0.0 0.7 138 5.4
17:30 - 18:00 7.5 9.1 6.1 88 0.0 6.8 198 20.2
18:00 - 18:30 8.9 9.1 8.7 75 0.0 8.3 209 18.7
18:30 - 19:00 8.7 9.1 8.5 71 0.0 9.7 212 16.9
19:00 - 19:30 8.7 9.0 8.6 70 0.0 10.1 218 20.5
19:30 - 20:00 8.3 8.6 8.2 71 0.0 7.9 220 15.8
20:00 - 20:30 7.7 8.4 6.7 73 0.0 5.4 202 14.4
20:30 - 21:00 5.1 6.6 4.2 86 0.0 0.7 200 4.7
21:00 - 21:30 3.3 4.3 2.8 96 0.0 0.4 81 3.2
21:30 - 22:00 2.8 3.0 2.4 99 0.0 0.7 95 3.2
22:00 - 22:30 (s/d) (s/d) (s/d) (s/d) (s/d) (s/d) (s/d) (s/d)

Les dades en taronja només han passat un control de qualitat automàtic. Resta pendent la seva validació definitiva.